createdAt,value
2022-10-22T00:02:07.279Z,7.20
2022-10-22T00:08:01.170Z,9.20
2022-10-22T00:14:29.877Z,7.70
2022-10-22T00:20:57.182Z,7.50
2022-10-22T00:27:21.188Z,7.60
2022-10-22T00:33:47.559Z,7.00
2022-10-22T00:40:18.373Z,7.90
2022-10-22T00:46:42.546Z,6.00
2022-10-22T00:53:07.217Z,7.30
2022-10-22T00:59:38.205Z,8.10
2022-10-22T01:06:04.443Z,7.00
2022-10-22T01:12:33.751Z,7.40
2022-10-22T01:19:07.115Z,7.00
2022-10-22T01:25:28.722Z,6.90
2022-10-22T01:32:00.610Z,7.00
2022-10-22T01:38:28.026Z,6.50
2022-10-22T01:51:07.571Z,7.50
2022-10-22T01:57:35.022Z,6.00
2022-10-22T02:04:11.787Z,6.90
2022-10-22T02:10:44.343Z,7.50
2022-10-22T02:17:18.856Z,7.30
2022-10-22T02:23:49.322Z,6.30
2022-10-22T02:30:12.182Z,7.80
2022-10-22T02:36:49.721Z,7.30
2022-10-22T02:43:19.253Z,6.10
2022-10-22T02:49:23.486Z,7.00
2022-10-22T02:55:30.653Z,8.10
2022-10-22T03:01:38.490Z,8.50
2022-10-22T03:08:03.548Z,7.10
2022-10-22T03:13:55.539Z,6.20
2022-10-22T03:20:13.366Z,7.90
2022-10-22T03:26:38.899Z,6.70
2022-10-22T03:32:56.161Z,7.40
2022-10-22T03:39:19.514Z,7.90
2022-10-22T03:45:43.009Z,6.90
2022-10-22T03:51:44.314Z,8.00
2022-10-22T03:58:22.993Z,6.70
2022-10-22T04:04:23.774Z,7.00
2022-10-22T04:17:33.031Z,5.80
2022-10-22T04:23:58.269Z,6.80
2022-10-22T04:30:36.252Z,8.70
2022-10-22T04:37:19.122Z,6.60
2022-10-22T04:43:39.259Z,7.60
2022-10-22T04:50:03.783Z,8.30
2022-10-22T04:56:58.725Z,6.40
2022-10-22T05:03:25.050Z,7.40
2022-10-22T05:09:49.797Z,6.80
2022-10-22T05:16:16.652Z,7.00
2022-10-22T05:23:14.982Z,6.40
2022-10-22T05:36:45.603Z,6.70
2022-10-22T05:43:12.121Z,5.70
2022-10-22T05:49:43.202Z,7.20
2022-10-22T05:56:07.508Z,5.80
2022-10-22T06:02:33.372Z,6.20
2022-10-22T06:08:57.731Z,5.90
2022-10-22T06:15:24.022Z,5.90
2022-10-22T06:21:48.703Z,7.50
2022-10-22T06:28:18.081Z,7.20
2022-10-22T06:35:05.439Z,9.20
2022-10-22T06:48:14.278Z,7.80
2022-10-22T06:54:38.605Z,8.80
2022-10-22T07:01:02.982Z,7.80
2022-10-22T07:07:34.509Z,8.90
2022-10-22T07:14:01.477Z,7.70
2022-10-22T07:20:25.839Z,6.80
2022-10-22T07:33:20.679Z,8.60
2022-10-22T07:39:14.891Z,8.20
2022-10-22T07:45:29.485Z,8.30
2022-10-22T07:58:35.154Z,8.00
2022-10-22T08:05:01.962Z,9.70
2022-10-22T08:11:28.310Z,6.80
2022-10-22T08:17:52.220Z,7.80
2022-10-22T08:24:16.247Z,9.30
2022-10-22T08:30:55.353Z,8.40
2022-10-22T08:37:19.563Z,8.50
2022-10-22T08:43:47.667Z,7.20
2022-10-22T08:50:24.259Z,6.40
2022-10-22T08:56:32.625Z,11.20
2022-10-22T09:02:57.241Z,17.10
2022-10-22T09:09:02.945Z,12.70
2022-10-22T09:15:47.343Z,8.60
2022-10-22T09:22:24.720Z,11.30
2022-10-22T09:28:41.553Z,13.00
2022-10-22T09:42:04.032Z,9.60
2022-10-22T09:48:28.570Z,10.40
2022-10-22T09:54:58.545Z,9.40
2022-10-22T10:01:24.256Z,8.20
2022-10-22T10:07:48.444Z,9.60
2022-10-22T10:14:25.601Z,9.00
2022-10-22T10:20:50.205Z,8.10
2022-10-22T10:27:17.533Z,10.90
2022-10-22T10:34:09.055Z,11.00
2022-10-22T10:40:58.025Z,9.10
2022-10-22T10:47:40.742Z,10.60
2022-10-22T10:54:15.370Z,10.80
2022-10-22T11:00:25.564Z,7.90
2022-10-22T11:13:47.720Z,10.70
2022-10-22T11:19:55.718Z,8.90
2022-10-22T11:33:41.383Z,9.60
2022-10-22T11:40:16.095Z,8.70
2022-10-22T11:46:23.663Z,9.00
2022-10-22T11:52:59.102Z,9.00
2022-10-22T11:59:07.615Z,8.00
2022-10-22T12:19:27.684Z,7.90
2022-10-22T12:25:59.179Z,6.90
2022-10-22T12:32:31.033Z,6.50
2022-10-22T12:38:57.890Z,7.10
2022-10-22T12:45:21.832Z,6.70
2022-10-22T12:51:48.842Z,6.60
2022-10-22T12:58:14.050Z,9.50
2022-10-22T13:04:46.921Z,6.40
2022-10-22T13:11:20.088Z,6.90
2022-10-22T13:17:52.619Z,8.30
2022-10-22T13:24:20.032Z,5.50
2022-10-22T13:30:49.814Z,15.20
2022-10-22T13:37:21.267Z,7.70
2022-10-22T13:43:48.018Z,7.80
2022-10-22T13:50:18.292Z,6.00
2022-10-22T13:56:35.889Z,6.60
2022-10-22T14:03:09.848Z,7.80
2022-10-22T14:09:07.521Z,6.90
2022-10-22T14:15:31.907Z,5.50
2022-10-22T14:21:40.410Z,4.70
2022-10-22T14:28:19.242Z,5.20
2022-10-22T14:34:44.096Z,6.00
2022-10-22T14:40:41.035Z,5.70
2022-10-22T14:47:22.005Z,6.10
2022-10-22T14:53:49.987Z,4.30
2022-10-22T15:00:16.614Z,5.30
2022-10-22T15:06:35.508Z,4.60
2022-10-22T15:13:01.118Z,5.60
2022-10-22T15:19:23.897Z,5.30
2022-10-22T15:25:50.514Z,4.50
2022-10-22T15:32:27.522Z,8.40
2022-10-22T15:38:47.107Z,5.80
2022-10-22T15:45:11.326Z,5.60
2022-10-22T15:51:36.997Z,6.80
2022-10-22T15:57:57.189Z,9.40
2022-10-22T16:04:25.291Z,8.90
2022-10-22T16:10:50.591Z,12.70
2022-10-22T16:17:15.536Z,20.60
2022-10-22T16:23:39.732Z,22.00
2022-10-22T16:30:06.062Z,17.00
2022-10-22T16:36:30.441Z,17.80
2022-10-22T16:42:53.467Z,14.60
2022-10-22T16:49:17.773Z,14.50
2022-10-22T16:55:36.218Z,11.80
2022-10-22T17:02:00.442Z,12.20
2022-10-22T17:08:25.636Z,15.40
2022-10-22T17:14:45.214Z,15.70
2022-10-22T17:21:10.965Z,11.30
2022-10-22T17:27:30.113Z,11.50
2022-10-22T17:33:54.407Z,9.40
2022-10-22T17:40:18.600Z,9.90
2022-10-22T17:46:44.075Z,9.40
2022-10-22T17:53:10.194Z,9.00
2022-10-22T17:59:24.566Z,10.80
2022-10-22T18:05:49.136Z,8.80
2022-10-22T18:12:13.449Z,9.70
2022-10-22T18:18:37.959Z,8.90
2022-10-22T18:25:01.968Z,6.80
2022-10-22T18:31:26.360Z,8.10
2022-10-22T18:37:51.979Z,9.20
2022-10-22T18:44:18.253Z,10.20
2022-10-22T18:50:42.721Z,8.40
2022-10-22T18:57:06.965Z,8.20
2022-10-22T19:03:32.657Z,10.10
2022-10-22T19:09:56.957Z,7.90
2022-10-22T19:16:23.378Z,9.80
2022-10-22T19:22:47.738Z,10.10
2022-10-22T19:29:12.122Z,8.60
2022-10-22T19:35:12.094Z,8.60
2022-10-22T19:41:37.718Z,8.70
2022-10-22T19:48:04.522Z,8.00
2022-10-22T19:54:23.056Z,10.90
2022-10-22T20:01:09.333Z,8.30
2022-10-22T20:07:33.903Z,8.70
2022-10-22T20:14:02.614Z,8.10
2022-10-22T20:20:28.482Z,9.30
2022-10-22T20:27:04.196Z,13.60
2022-10-22T20:33:29.519Z,10.70
2022-10-22T20:39:45.038Z,13.10
2022-10-22T20:46:09.012Z,12.50
2022-10-22T20:52:33.398Z,12.90
2022-10-22T20:58:57.398Z,9.60
2022-10-22T21:05:22.766Z,10.50
2022-10-22T21:11:47.723Z,11.10
2022-10-22T21:18:13.618Z,10.90
2022-10-22T21:24:51.826Z,15.60
2022-10-22T21:31:17.442Z,10.80
2022-10-22T21:38:15.722Z,14.80
2022-10-22T21:44:47.004Z,11.40
2022-10-22T21:51:15.253Z,10.40
2022-10-22T21:57:46.429Z,11.40
2022-10-22T22:04:19.800Z,9.50
2022-10-22T22:10:48.093Z,9.10
2022-10-22T22:17:02.440Z,7.80
2022-10-22T22:23:28.406Z,9.20
2022-10-22T22:29:45.602Z,7.50
2022-10-22T22:36:08.771Z,7.80
2022-10-22T22:42:25.972Z,8.50
2022-10-22T22:48:30.530Z,9.80
2022-10-22T22:54:59.699Z,8.10
2022-10-22T23:01:06.790Z,6.30
2022-10-22T23:07:16.512Z,6.80
2022-10-22T23:13:36.418Z,7.80
2022-10-22T23:26:32.324Z,6.20
2022-10-22T23:32:27.401Z,7.30
2022-10-22T23:38:26.421Z,7.90
2022-10-22T23:51:47.739Z,8.10
